createdAt,value
2022-12-11T00:00:17.087Z,25.20
2022-12-11T00:00:49.221Z,25.10
2022-12-11T00:01:21.352Z,26.10
2022-12-11T00:01:53.527Z,27.90
2022-12-11T00:02:25.666Z,28.30
2022-12-11T00:02:57.770Z,26.20
2022-12-11T00:03:29.910Z,25.70
2022-12-11T00:04:01.993Z,25.50
2022-12-11T00:04:34.110Z,24.80
2022-12-11T00:05:06.222Z,26.20
2022-12-11T00:05:38.376Z,27.30
2022-12-11T00:06:10.526Z,27.50
2022-12-11T00:06:42.656Z,26.80
2022-12-11T00:07:14.902Z,24.60
2022-12-11T00:07:47.104Z,24.20
2022-12-11T00:08:19.211Z,26.50
2022-12-11T00:08:51.388Z,25.20
2022-12-11T00:09:23.526Z,23.60
2022-12-11T00:09:55.696Z,24.10
2022-12-11T00:10:27.818Z,25.60
2022-12-11T00:10:59.977Z,26.90
2022-12-11T00:11:32.108Z,26.00
2022-12-11T00:12:04.250Z,25.30
2022-12-11T00:12:36.364Z,25.60
2022-12-11T00:13:08.513Z,24.60
2022-12-11T00:13:40.675Z,23.40
2022-12-11T00:14:12.811Z,23.30
2022-12-11T00:14:44.919Z,23.20
2022-12-11T00:15:17.034Z,22.30
2022-12-11T00:15:49.183Z,24.60
2022-12-11T00:16:26.521Z,25.80
2022-12-11T00:16:53.457Z,24.40
2022-12-11T00:17:25.557Z,25.10
2022-12-11T00:17:57.677Z,26.00
2022-12-11T00:18:29.825Z,27.20
2022-12-11T00:19:01.964Z,26.60
2022-12-11T00:19:34.337Z,24.60
2022-12-11T00:20:06.498Z,22.40
2022-12-11T00:20:38.724Z,24.30
2022-12-11T00:21:10.931Z,24.50
2022-12-11T00:21:43.065Z,23.50
2022-12-11T00:22:15.184Z,23.20
2022-12-11T00:22:47.321Z,22.90
2022-12-11T00:23:19.428Z,22.60
2022-12-11T00:23:51.594Z,22.70
2022-12-11T00:24:23.742Z,25.90
2022-12-11T00:24:55.816Z,25.50
2022-12-11T00:25:28.069Z,26.00
2022-12-11T00:26:00.213Z,25.40
2022-12-11T00:26:32.318Z,23.70
2022-12-11T00:27:04.433Z,22.20
2022-12-11T00:27:36.544Z,20.90
2022-12-11T00:28:08.667Z,21.80
2022-12-11T00:28:40.851Z,24.80
2022-12-11T00:29:12.965Z,24.10
2022-12-11T00:29:45.143Z,22.10
2022-12-11T00:30:17.301Z,22.00
2022-12-11T00:30:49.442Z,22.70
2022-12-11T00:31:21.652Z,22.30
2022-12-11T00:31:53.749Z,22.00
2022-12-11T00:32:28.251Z,23.50
2022-12-11T00:32:57.950Z,23.30
2022-12-11T00:33:30.080Z,24.40
2022-12-11T00:34:02.227Z,25.20
2022-12-11T00:34:34.364Z,22.10
2022-12-11T00:35:06.493Z,21.70
2022-12-11T00:35:38.625Z,23.70
2022-12-11T00:36:10.789Z,24.50
2022-12-11T00:36:42.904Z,22.40
2022-12-11T00:37:15.096Z,22.30
2022-12-11T00:37:47.161Z,22.70
2022-12-11T00:38:19.268Z,22.70
2022-12-11T00:38:51.396Z,22.40
2022-12-11T00:39:23.516Z,20.30
2022-12-11T00:39:55.683Z,21.10
2022-12-11T00:40:27.819Z,20.20
2022-12-11T00:40:59.959Z,19.10
2022-12-11T00:41:32.072Z,21.70
2022-12-11T00:42:04.197Z,24.50
2022-12-11T00:42:36.310Z,23.70
2022-12-11T00:43:08.413Z,21.20
2022-12-11T00:43:40.532Z,20.80
2022-12-11T00:44:12.672Z,21.70
2022-12-11T00:44:44.788Z,24.00
2022-12-11T00:45:16.938Z,24.90
2022-12-11T00:45:49.185Z,23.80
2022-12-11T00:46:21.341Z,24.10
2022-12-11T00:46:53.394Z,22.80
2022-12-11T00:47:25.514Z,20.90
2022-12-11T00:47:57.631Z,21.30
2022-12-11T00:48:29.783Z,22.20
2022-12-11T00:49:01.915Z,21.40
2022-12-11T00:49:34.144Z,19.30
2022-12-11T00:50:06.261Z,19.30
2022-12-11T00:50:38.386Z,20.70
2022-12-11T00:51:10.517Z,20.50
2022-12-11T00:51:42.649Z,21.00
2022-12-11T00:52:14.800Z,21.30
2022-12-11T00:52:46.927Z,22.50
2022-12-11T00:53:19.071Z,22.70
2022-12-11T00:53:51.353Z,22.90
2022-12-11T00:54:23.466Z,23.20
2022-12-11T00:54:55.611Z,22.70
2022-12-11T00:55:27.722Z,23.60
2022-12-11T00:55:59.880Z,23.90
2022-12-11T00:56:32.010Z,22.20
2022-12-11T00:57:04.142Z,22.30
2022-12-11T00:57:36.293Z,23.00
2022-12-11T00:58:08.506Z,21.60
2022-12-11T00:58:40.609Z,20.90
2022-12-11T00:59:12.786Z,22.30
2022-12-11T00:59:44.922Z,25.10
2022-12-11T01:00:17.047Z,23.70
2022-12-11T01:00:49.248Z,22.10
2022-12-11T01:01:21.479Z,20.50
2022-12-11T01:01:53.540Z,21.90
2022-12-11T01:02:25.739Z,24.20
2022-12-11T01:02:57.854Z,22.90
2022-12-11T01:03:29.960Z,23.20
2022-12-11T01:04:02.069Z,21.80
2022-12-11T01:04:34.238Z,20.50
2022-12-11T01:05:06.361Z,21.80
2022-12-11T01:05:38.493Z,22.40
2022-12-11T01:06:10.643Z,20.60
2022-12-11T01:06:42.889Z,20.90
2022-12-11T01:07:15.028Z,24.20
2022-12-11T01:07:47.252Z,24.40
2022-12-11T01:08:19.384Z,26.90
2022-12-11T01:08:51.451Z,27.30
2022-12-11T01:09:23.591Z,22.70
2022-12-11T01:09:55.725Z,21.00
2022-12-11T01:10:27.894Z,21.80
2022-12-11T01:10:59.981Z,24.00
2022-12-11T01:11:32.126Z,24.10
2022-12-11T01:12:04.256Z,22.60
2022-12-11T01:12:36.407Z,24.80
2022-12-11T01:13:08.498Z,24.80
2022-12-11T01:13:40.629Z,23.10
2022-12-11T01:14:12.735Z,21.80
2022-12-11T01:14:45.008Z,24.30
2022-12-11T01:15:17.129Z,24.70
2022-12-11T01:15:49.257Z,22.50
2022-12-11T01:16:21.440Z,21.40
2022-12-11T01:16:53.643Z,21.90
2022-12-11T01:17:25.654Z,22.50
2022-12-11T01:17:57.767Z,20.90
2022-12-11T01:18:29.895Z,20.90
2022-12-11T01:19:02.058Z,22.60
2022-12-11T01:19:34.165Z,21.70
2022-12-11T01:20:06.313Z,22.80
2022-12-11T01:20:38.474Z,23.90
2022-12-11T01:21:10.635Z,22.00
2022-12-11T01:21:42.763Z,21.10
2022-12-11T01:22:14.976Z,20.70
2022-12-11T01:22:47.116Z,21.40
2022-12-11T01:23:19.226Z,21.70
2022-12-11T01:23:51.341Z,20.90
2022-12-11T01:24:23.467Z,21.90
2022-12-11T01:24:55.611Z,21.90
2022-12-11T01:25:27.732Z,20.20
2022-12-11T01:25:59.855Z,21.70
2022-12-11T01:26:31.981Z,22.30
2022-12-11T01:27:04.111Z,20.80
2022-12-11T01:27:36.258Z,21.00
2022-12-11T01:28:08.388Z,22.00
2022-12-11T01:28:40.668Z,22.90
2022-12-11T01:29:12.793Z,22.30
2022-12-11T01:29:44.905Z,22.70
2022-12-11T01:30:17.052Z,20.80
2022-12-11T01:30:49.191Z,22.10
2022-12-11T01:31:21.317Z,21.60
2022-12-11T01:31:53.403Z,20.00
2022-12-11T01:32:25.529Z,19.30
2022-12-11T01:32:57.655Z,19.10
2022-12-11T01:33:29.807Z,20.80
2022-12-11T01:34:01.937Z,22.30
2022-12-11T01:34:34.223Z,21.00
2022-12-11T01:35:06.350Z,22.40
2022-12-11T01:35:38.487Z,21.50
2022-12-11T01:36:10.615Z,21.40
2022-12-11T01:36:42.786Z,22.20
2022-12-11T01:37:14.973Z,22.50
2022-12-11T01:37:47.075Z,20.50
2022-12-11T01:38:19.169Z,19.60
2022-12-11T01:38:51.298Z,21.10
2022-12-11T01:39:23.417Z,21.50
2022-12-11T01:39:55.577Z,20.60
2022-12-11T01:40:27.722Z,22.20
2022-12-11T01:41:00.011Z,22.80
2022-12-11T01:41:32.145Z,21.00
2022-12-11T01:42:04.276Z,21.70
2022-12-11T01:42:36.460Z,21.50
2022-12-11T01:43:08.533Z,20.20
2022-12-11T01:43:40.692Z,20.60
2022-12-11T01:44:12.818Z,21.30
2022-12-11T01:44:44.950Z,21.20
2022-12-11T01:45:17.064Z,19.80
2022-12-11T01:45:49.295Z,20.00
2022-12-11T01:46:21.441Z,20.50
2022-12-11T01:46:53.544Z,20.60
2022-12-11T01:47:25.682Z,21.10
2022-12-11T01:47:57.811Z,22.10
2022-12-11T01:48:29.960Z,21.70
2022-12-11T01:49:02.089Z,20.00
2022-12-11T01:49:34.217Z,19.00
2022-12-11T01:50:06.384Z,21.20
2022-12-11T01:50:38.504Z,22.10
2022-12-11T01:51:10.648Z,21.10
2022-12-11T01:51:42.769Z,21.10
2022-12-11T01:52:14.937Z,22.10
2022-12-11T01:52:47.053Z,21.30
2022-12-11T01:53:19.184Z,21.50
2022-12-11T01:53:51.324Z,21.30
2022-12-11T01:54:23.451Z,20.40
2022-12-11T01:54:55.647Z,20.50
2022-12-11T01:55:27.822Z,21.60
2022-12-11T01:55:59.953Z,23.90
2022-12-11T01:56:32.084Z,23.00
2022-12-11T01:57:04.193Z,20.10
2022-12-11T01:57:36.323Z,20.90
2022-12-11T01:58:08.518Z,20.30
2022-12-11T01:58:40.683Z,21.10
2022-12-11T01:59:12.851Z,23.60
2022-12-11T01:59:44.977Z,22.40
2022-12-11T02:00:17.102Z,20.20
2022-12-11T02:00:49.360Z,18.60
2022-12-11T02:01:21.342Z,20.20
2022-12-11T02:01:53.476Z,20.30
2022-12-11T02:02:25.674Z,20.30
2022-12-11T02:02:57.820Z,20.40
2022-12-11T02:03:30.003Z,21.30
2022-12-11T02:04:02.120Z,22.20
2022-12-11T02:04:34.237Z,20.30
2022-12-11T02:05:06.396Z,18.50
2022-12-11T02:05:39.198Z,20.10
2022-12-11T02:06:11.332Z,20.40
2022-12-11T02:06:43.483Z,20.50
2022-12-11T02:07:15.667Z,20.00
2022-12-11T02:07:47.871Z,19.40
2022-12-11T02:08:20.000Z,20.10
2022-12-11T02:08:52.086Z,19.20
2022-12-11T02:09:24.375Z,19.80
2022-12-11T02:09:56.507Z,21.50
2022-12-11T02:10:28.624Z,21.30
2022-12-11T02:11:00.779Z,21.60
2022-12-11T02:11:32.946Z,21.90
2022-12-11T02:12:05.076Z,23.50
2022-12-11T02:12:37.239Z,22.10
2022-12-11T02:13:09.357Z,20.50
2022-12-11T02:13:41.473Z,19.70
2022-12-11T02:14:13.630Z,21.70
2022-12-11T02:14:45.754Z,21.90
2022-12-11T02:15:17.895Z,20.20
2022-12-11T02:15:49.999Z,22.00
2022-12-11T02:16:22.171Z,23.20
2022-12-11T02:16:54.334Z,20.60
2022-12-11T02:17:26.464Z,21.20
2022-12-11T02:17:58.647Z,22.10
2022-12-11T02:18:30.774Z,21.50
2022-12-11T02:19:02.900Z,20.00
2022-12-11T02:19:35.082Z,20.80
2022-12-11T02:20:07.220Z,20.00
2022-12-11T02:20:39.375Z,19.50
2022-12-11T02:21:11.589Z,17.90
2022-12-11T02:21:43.715Z,17.20
2022-12-11T02:22:15.857Z,19.90
2022-12-11T02:22:48.104Z,18.90
2022-12-11T02:23:20.239Z,19.00
2022-12-11T02:23:52.385Z,20.20
2022-12-11T02:24:24.517Z,20.60
2022-12-11T02:24:56.703Z,19.50
2022-12-11T02:25:28.857Z,19.20
2022-12-11T02:26:01.076Z,20.00
2022-12-11T02:26:33.227Z,19.60
2022-12-11T02:27:05.386Z,18.90
2022-12-11T02:27:37.591Z,19.80
2022-12-11T02:28:09.771Z,19.70
2022-12-11T02:28:41.952Z,19.30
2022-12-11T02:29:14.132Z,19.60
2022-12-11T02:29:46.251Z,19.70
2022-12-11T02:30:18.405Z,18.70
2022-12-11T02:30:50.586Z,20.30
2022-12-11T02:31:22.803Z,20.50
2022-12-11T02:31:54.873Z,19.30
2022-12-11T02:32:26.999Z,21.30
2022-12-11T02:32:59.195Z,21.10
2022-12-11T02:33:31.350Z,20.00
2022-12-11T02:34:03.517Z,20.30
2022-12-11T02:34:35.657Z,18.90
2022-12-11T02:35:08.111Z,19.90
2022-12-11T02:35:40.032Z,21.40
2022-12-11T02:36:12.190Z,19.00
2022-12-11T02:36:44.401Z,20.50
2022-12-11T02:37:16.545Z,21.60
2022-12-11T02:37:48.716Z,20.20
2022-12-11T02:38:20.860Z,19.80
2022-12-11T02:38:53.031Z,19.20
2022-12-11T02:39:25.174Z,19.50
2022-12-11T02:39:57.371Z,19.80
2022-12-11T02:40:29.574Z,18.90
2022-12-11T02:41:01.706Z,20.10
2022-12-11T02:41:33.962Z,20.40
2022-12-11T02:42:06.096Z,20.10
2022-12-11T02:42:38.261Z,20.00
2022-12-11T02:43:10.427Z,21.30
2022-12-11T02:43:42.584Z,21.70
2022-12-11T02:44:14.781Z,20.90
2022-12-11T02:44:46.923Z,20.50
2022-12-11T02:45:19.085Z,20.40
2022-12-11T02:45:51.260Z,18.90
2022-12-11T02:46:23.352Z,19.30
2022-12-11T02:46:55.517Z,20.00
2022-12-11T02:47:27.655Z,20.20
2022-12-11T02:47:59.839Z,19.80
2022-12-11T02:48:31.970Z,20.20
2022-12-11T02:49:04.141Z,20.70
2022-12-11T02:49:36.275Z,19.40
2022-12-11T02:50:08.440Z,19.10
2022-12-11T02:50:40.628Z,21.00
2022-12-11T02:51:12.780Z,19.60
2022-12-11T02:51:44.942Z,18.30
2022-12-11T02:52:17.120Z,19.30
2022-12-11T02:52:49.261Z,20.30
2022-12-11T02:53:21.430Z,19.90
2022-12-11T02:53:53.568Z,19.20
2022-12-11T02:54:25.819Z,20.10
2022-12-11T02:54:57.954Z,19.70
2022-12-11T02:55:30.187Z,20.00
2022-12-11T02:56:02.306Z,20.70
2022-12-11T02:56:34.448Z,19.90
2022-12-11T02:57:06.577Z,20.30
2022-12-11T02:57:38.713Z,20.50
2022-12-11T02:58:10.869Z,20.70
2022-12-11T02:58:43.031Z,20.70
2022-12-11T02:59:15.167Z,18.50
2022-12-11T02:59:47.294Z,19.30
2022-12-11T03:00:19.450Z,21.90
2022-12-11T03:00:51.605Z,21.10
2022-12-11T03:01:23.759Z,20.50
2022-12-11T03:01:55.975Z,18.60
2022-12-11T03:02:28.113Z,18.30
2022-12-11T03:03:00.250Z,20.00
2022-12-11T03:03:32.395Z,20.00
2022-12-11T03:04:04.580Z,19.30
2022-12-11T03:04:36.813Z,18.70
2022-12-11T03:05:09.129Z,18.30
2022-12-11T03:05:41.091Z,18.90
2022-12-11T03:06:13.208Z,18.10
2022-12-11T03:06:45.334Z,18.70
2022-12-11T03:07:17.551Z,18.80
2022-12-11T03:07:49.845Z,17.90
2022-12-11T03:08:21.973Z,18.60
2022-12-11T03:08:54.017Z,18.70
2022-12-11T03:09:26.220Z,19.10
2022-12-11T03:09:58.339Z,18.50
2022-12-11T03:10:30.497Z,17.20
2022-12-11T03:11:02.641Z,17.80
2022-12-11T03:11:34.779Z,19.90
2022-12-11T03:12:06.917Z,19.90
2022-12-11T03:12:39.062Z,16.80
2022-12-11T03:13:11.239Z,16.40
2022-12-11T03:13:43.452Z,17.00
2022-12-11T03:14:15.594Z,16.80
2022-12-11T03:14:47.769Z,17.10
2022-12-11T03:15:19.915Z,16.90
2022-12-11T03:15:52.050Z,17.80
2022-12-11T03:16:24.297Z,18.60
2022-12-11T03:16:56.919Z,17.90
2022-12-11T03:17:29.168Z,18.90
2022-12-11T03:18:01.318Z,19.00
2022-12-11T03:18:33.546Z,17.60
2022-12-11T03:19:05.728Z,18.50
2022-12-11T03:19:37.841Z,17.70
2022-12-11T03:20:10.001Z,17.80
2022-12-11T03:20:42.144Z,17.00
2022-12-11T03:21:14.344Z,16.30
2022-12-11T03:21:46.541Z,16.00
2022-12-11T03:22:18.676Z,16.40
2022-12-11T03:22:50.814Z,18.50
2022-12-11T03:23:22.987Z,17.30
2022-12-11T03:23:55.131Z,15.00
2022-12-11T03:24:27.305Z,15.00
2022-12-11T03:24:59.461Z,16.10
2022-12-11T03:25:31.682Z,18.20
2022-12-11T03:26:03.807Z,17.70
2022-12-11T03:26:36.015Z,17.20
2022-12-11T03:27:11.098Z,17.90
2022-12-11T03:27:40.300Z,16.60
2022-12-11T03:28:12.430Z,16.70
2022-12-11T03:28:44.576Z,17.90
2022-12-11T03:29:16.804Z,17.90
2022-12-11T03:29:48.987Z,17.80
2022-12-11T03:30:21.107Z,18.00
2022-12-11T03:30:53.299Z,17.20
2022-12-11T03:31:25.362Z,16.70
2022-12-11T03:31:57.502Z,18.00
2022-12-11T03:32:29.658Z,17.30
2022-12-11T03:33:01.828Z,17.90
2022-12-11T03:33:34.036Z,18.40
2022-12-11T03:34:06.172Z,16.50
2022-12-11T03:34:38.295Z,17.10
2022-12-11T03:35:10.656Z,18.80
2022-12-11T03:35:42.663Z,17.40
2022-12-11T03:36:14.794Z,16.90
2022-12-11T03:36:46.954Z,17.50
2022-12-11T03:37:19.076Z,16.80
2022-12-11T03:37:51.311Z,17.70
2022-12-11T03:38:23.487Z,19.20
2022-12-11T03:38:55.622Z,19.10
2022-12-11T03:39:27.771Z,18.80
2022-12-11T03:39:59.933Z,18.60
2022-12-11T03:40:32.088Z,18.30
2022-12-11T03:41:04.256Z,17.10
2022-12-11T03:41:36.403Z,15.60
2022-12-11T03:42:08.562Z,17.40
2022-12-11T03:42:40.678Z,18.40
2022-12-11T03:43:12.804Z,17.90
2022-12-11T03:43:44.944Z,17.80
2022-12-11T03:44:17.121Z,17.50
2022-12-11T03:44:49.234Z,16.50
2022-12-11T03:45:21.433Z,17.70
2022-12-11T03:45:53.596Z,18.00
2022-12-11T03:46:25.756Z,18.10
2022-12-11T03:46:57.888Z,19.30
2022-12-11T03:47:30.048Z,18.00
2022-12-11T03:48:02.167Z,17.30
2022-12-11T03:48:34.370Z,18.30
2022-12-11T03:49:07.468Z,17.00
2022-12-11T03:49:39.617Z,17.20
2022-12-11T03:50:11.730Z,16.90
2022-12-11T03:50:43.904Z,15.90
2022-12-11T03:51:16.074Z,16.60
2022-12-11T03:51:48.239Z,16.60
2022-12-11T03:52:20.386Z,15.70
2022-12-11T03:52:52.553Z,16.80
2022-12-11T03:53:24.747Z,18.10
2022-12-11T03:53:56.896Z,17.40
2022-12-11T03:54:29.015Z,15.90
2022-12-11T03:55:01.209Z,16.50
2022-12-11T03:55:33.335Z,16.20
2022-12-11T03:56:05.477Z,15.00
2022-12-11T03:56:37.626Z,16.80
2022-12-11T03:57:09.766Z,16.80
2022-12-11T03:57:41.945Z,16.00
2022-12-11T03:58:14.108Z,16.20
2022-12-11T03:58:46.259Z,16.60
2022-12-11T03:59:18.412Z,16.60
2022-12-11T03:59:50.536Z,16.10
2022-12-11T04:00:22.690Z,16.40
2022-12-11T04:00:54.808Z,15.50
2022-12-11T04:01:26.999Z,16.90
2022-12-11T04:01:59.150Z,19.60
2022-12-11T04:02:31.240Z,20.00
2022-12-11T04:03:06.889Z,17.00
2022-12-11T04:03:35.508Z,15.60
2022-12-11T04:04:07.691Z,15.70
2022-12-11T04:04:39.851Z,16.60
2022-12-11T04:05:12.158Z,18.20
2022-12-11T04:05:44.149Z,17.20
2022-12-11T04:06:16.285Z,14.80
2022-12-11T04:06:48.416Z,15.00
2022-12-11T04:07:20.529Z,15.90
2022-12-11T04:07:52.774Z,16.50
2022-12-11T04:08:24.974Z,15.20
2022-12-11T04:08:57.086Z,15.50
2022-12-11T04:09:29.239Z,16.10
2022-12-11T04:10:01.397Z,16.80
2022-12-11T04:10:33.543Z,16.30
2022-12-11T04:11:05.661Z,15.10
2022-12-11T04:11:37.804Z,14.50
2022-12-11T04:12:09.918Z,14.40
2022-12-11T04:12:42.059Z,16.60
2022-12-11T04:13:14.200Z,15.40
2022-12-11T04:13:46.318Z,16.30
2022-12-11T04:14:18.470Z,16.70
2022-12-11T04:14:50.611Z,14.90
2022-12-11T04:15:22.734Z,14.30
2022-12-11T04:15:54.916Z,13.50
2022-12-11T04:16:27.003Z,14.00
2022-12-11T04:16:59.256Z,15.90
2022-12-11T04:17:31.409Z,15.90
2022-12-11T04:18:03.532Z,15.20
2022-12-11T04:18:35.667Z,15.40
2022-12-11T04:19:07.802Z,16.60
2022-12-11T04:19:39.916Z,18.20
2022-12-11T04:20:12.057Z,17.40
2022-12-11T04:20:44.186Z,15.70
2022-12-11T04:21:16.325Z,14.10
2022-12-11T04:21:48.450Z,14.30
2022-12-11T04:22:20.597Z,15.10
2022-12-11T04:22:52.743Z,14.10
2022-12-11T04:23:24.955Z,14.70
2022-12-11T04:23:57.097Z,13.90
2022-12-11T04:24:29.279Z,14.20
2022-12-11T04:25:01.422Z,16.30
2022-12-11T04:25:33.588Z,15.60
2022-12-11T04:26:05.722Z,15.20
2022-12-11T04:26:37.849Z,15.30
2022-12-11T04:27:09.973Z,13.10
2022-12-11T04:27:42.165Z,13.60
2022-12-11T04:28:14.338Z,15.30
2022-12-11T04:28:46.492Z,15.70
2022-12-11T04:29:18.643Z,15.80
2022-12-11T04:29:50.760Z,15.60
2022-12-11T04:30:22.950Z,15.30
2022-12-11T04:30:55.119Z,14.30
2022-12-11T04:31:27.237Z,13.20
2022-12-11T04:31:59.313Z,13.60
2022-12-11T04:32:31.464Z,14.40
2022-12-11T04:33:03.667Z,15.10
2022-12-11T04:33:35.803Z,14.50
2022-12-11T04:34:07.934Z,13.50
2022-12-11T04:34:40.081Z,14.30
2022-12-11T04:35:12.451Z,14.80
2022-12-11T04:35:44.370Z,15.60
2022-12-11T04:36:16.557Z,15.90
2022-12-11T04:36:48.738Z,15.80
2022-12-11T04:37:20.890Z,16.60
2022-12-11T04:37:53.034Z,17.50
2022-12-11T04:38:25.246Z,16.70
2022-12-11T04:38:57.373Z,15.50
2022-12-11T04:39:29.525Z,15.10
2022-12-11T04:40:02.353Z,15.00
2022-12-11T04:40:34.484Z,15.60
2022-12-11T04:41:06.650Z,15.40
2022-12-11T04:41:38.868Z,15.20
2022-12-11T04:42:10.969Z,14.80
2022-12-11T04:42:43.103Z,15.30
2022-12-11T04:43:15.237Z,16.90
2022-12-11T04:43:47.385Z,15.90
2022-12-11T04:44:20.496Z,15.00
2022-12-11T04:44:52.647Z,16.00
2022-12-11T04:45:24.796Z,16.20
2022-12-11T04:45:56.892Z,15.30
2022-12-11T04:46:29.080Z,16.10
2022-12-11T04:47:01.174Z,15.70
2022-12-11T04:47:33.327Z,14.50
2022-12-11T04:48:05.495Z,14.90
2022-12-11T04:48:37.670Z,15.80
2022-12-11T04:49:09.776Z,14.50
2022-12-11T04:49:42.035Z,14.30
2022-12-11T04:50:14.169Z,14.80
2022-12-11T04:50:46.320Z,14.90
2022-12-11T04:51:18.440Z,14.50
2022-12-11T04:51:50.603Z,15.20
2022-12-11T04:52:22.758Z,15.50
2022-12-11T04:52:54.881Z,15.30
2022-12-11T04:53:27.053Z,14.80
2022-12-11T04:53:59.270Z,14.40
2022-12-11T04:54:31.422Z,13.80
2022-12-11T04:55:03.575Z,12.90
2022-12-11T04:55:35.688Z,12.30
2022-12-11T04:56:07.831Z,14.10
2022-12-11T04:56:39.990Z,16.00
2022-12-11T04:57:12.128Z,15.00
2022-12-11T04:57:44.283Z,14.40
2022-12-11T04:58:16.400Z,13.50
2022-12-11T04:58:48.569Z,13.80
2022-12-11T04:59:20.700Z,14.00
2022-12-11T04:59:52.866Z,12.40
2022-12-11T05:00:25.048Z,13.20
2022-12-11T05:00:57.178Z,13.50
2022-12-11T05:01:29.350Z,14.20
2022-12-11T05:02:01.451Z,14.00
2022-12-11T05:02:33.621Z,14.10
2022-12-11T05:03:05.749Z,13.20
2022-12-11T05:03:37.852Z,14.10
2022-12-11T05:04:09.965Z,13.30
2022-12-11T05:04:42.127Z,11.10
2022-12-11T05:05:14.518Z,12.10
2022-12-11T05:05:46.427Z,12.70
2022-12-11T05:06:18.538Z,11.60
2022-12-11T05:06:50.701Z,13.30
2022-12-11T05:07:22.810Z,14.40
2022-12-11T05:07:54.986Z,13.90
2022-12-11T05:08:27.121Z,14.20
2022-12-11T05:08:59.239Z,13.70
2022-12-11T05:09:31.371Z,13.30
2022-12-11T05:10:03.526Z,13.20
2022-12-11T05:10:35.651Z,12.10
2022-12-11T05:11:07.763Z,12.30
2022-12-11T05:11:39.975Z,12.30
2022-12-11T05:12:12.068Z,13.00
2022-12-11T05:12:44.230Z,12.70
2022-12-11T05:13:16.352Z,12.20
2022-12-11T05:13:48.540Z,12.00
2022-12-11T05:14:20.710Z,12.60
2022-12-11T05:14:52.806Z,11.70
2022-12-11T05:15:31.981Z,11.50
2022-12-11T05:16:04.521Z,12.40
2022-12-11T05:16:36.606Z,12.90
2022-12-11T05:17:08.755Z,12.10
2022-12-11T05:17:40.954Z,13.20
2022-12-11T05:18:13.083Z,13.30
2022-12-11T05:18:45.218Z,11.20
2022-12-11T05:19:17.375Z,11.10
2022-12-11T05:19:49.522Z,12.90
2022-12-11T05:20:21.693Z,12.50
2022-12-11T05:20:53.805Z,14.50
2022-12-11T05:21:29.052Z,14.90
2022-12-11T05:21:58.135Z,12.60
2022-12-11T05:22:30.275Z,13.80
2022-12-11T05:23:02.382Z,14.10
2022-12-11T05:23:34.503Z,13.10
2022-12-11T05:24:06.604Z,11.80
2022-12-11T05:24:38.721Z,11.60
2022-12-11T05:25:11.138Z,11.40
2022-12-11T05:25:43.017Z,11.50
2022-12-11T05:26:15.131Z,11.50
2022-12-11T05:26:47.278Z,12.10
2022-12-11T05:27:19.369Z,12.00
2022-12-11T05:27:51.528Z,13.30
2022-12-11T05:28:23.660Z,13.80
2022-12-11T05:28:55.794Z,11.80
2022-12-11T05:29:27.919Z,11.40
2022-12-11T05:30:00.122Z,13.10
2022-12-11T05:30:32.300Z,12.20
2022-12-11T05:31:04.519Z,12.90
2022-12-11T05:31:37.188Z,13.30
2022-12-11T05:32:09.277Z,12.30
2022-12-11T05:32:41.383Z,12.80
2022-12-11T05:33:13.508Z,12.40
2022-12-11T05:33:45.644Z,12.70
2022-12-11T05:34:17.776Z,14.20
2022-12-11T05:34:49.913Z,13.40
2022-12-11T05:35:22.038Z,12.40
2022-12-11T05:35:54.188Z,12.30
2022-12-11T05:36:26.346Z,12.10
2022-12-11T05:36:58.452Z,12.80
2022-12-11T05:37:30.571Z,12.70
2022-12-11T05:38:02.717Z,12.80
2022-12-11T05:38:34.846Z,13.00
2022-12-11T05:39:06.974Z,13.30
2022-12-11T05:39:39.080Z,12.40
2022-12-11T05:40:11.190Z,11.00
2022-12-11T05:40:43.398Z,11.60
2022-12-11T05:41:15.524Z,12.00
2022-12-11T05:41:47.663Z,11.90
2022-12-11T05:42:22.875Z,11.10
2022-12-11T05:42:51.935Z,11.80
2022-12-11T05:43:24.040Z,13.10
2022-12-11T05:43:56.167Z,13.00
2022-12-11T05:44:28.288Z,10.60
2022-12-11T05:45:00.403Z,10.80
2022-12-11T05:45:32.578Z,13.70
2022-12-11T05:46:04.734Z,13.10
2022-12-11T05:46:36.896Z,12.90
2022-12-11T05:47:08.967Z,12.80
2022-12-11T05:47:41.070Z,14.30
2022-12-11T05:48:13.210Z,12.70
2022-12-11T05:48:45.321Z,11.00
2022-12-11T05:49:19.908Z,11.30
2022-12-11T05:49:49.552Z,11.20
2022-12-11T05:50:21.858Z,13.10
2022-12-11T05:50:53.991Z,13.70
2022-12-11T05:51:26.615Z,13.80
2022-12-11T05:51:59.164Z,12.10
2022-12-11T05:52:31.284Z,9.70
2022-12-11T05:53:03.460Z,9.60
2022-12-11T05:53:35.583Z,10.20
2022-12-11T05:54:07.716Z,11.10
2022-12-11T05:54:39.839Z,10.60
2022-12-11T05:55:12.222Z,11.00
2022-12-11T05:55:44.089Z,11.40
2022-12-11T05:56:16.200Z,11.50
2022-12-11T05:56:48.373Z,11.20
2022-12-11T05:57:20.506Z,10.10
2022-12-11T05:57:52.620Z,10.20
2022-12-11T05:58:24.749Z,10.60
2022-12-11T05:58:56.883Z,11.40
2022-12-11T05:59:29.022Z,11.70
2022-12-11T06:00:01.171Z,10.90
2022-12-11T06:00:36.169Z,11.00
2022-12-11T06:01:05.417Z,12.00
2022-12-11T06:01:37.660Z,12.40
2022-12-11T06:02:10.070Z,11.30
2022-12-11T06:02:42.178Z,10.70
2022-12-11T06:03:14.205Z,12.00
2022-12-11T06:03:46.251Z,11.50
2022-12-11T06:04:18.371Z,11.50
2022-12-11T06:04:50.525Z,11.20
2022-12-11T06:05:22.649Z,12.90
2022-12-11T06:05:54.750Z,11.30
2022-12-11T06:06:26.879Z,9.80
2022-12-11T06:06:59.009Z,10.90
2022-12-11T06:07:31.145Z,11.90
2022-12-11T06:08:03.308Z,12.10
2022-12-11T06:08:35.404Z,13.70
2022-12-11T06:09:07.550Z,13.60
2022-12-11T06:09:39.688Z,12.10
2022-12-11T06:10:11.864Z,11.50
2022-12-11T06:10:44.000Z,11.10
2022-12-11T06:11:20.919Z,11.10
2022-12-11T06:11:48.238Z,11.30
2022-12-11T06:12:20.404Z,11.80
2022-12-11T06:12:52.537Z,12.00
2022-12-11T06:13:24.702Z,11.60
2022-12-11T06:13:56.868Z,11.80
2022-12-11T06:14:29.000Z,10.90
2022-12-11T06:15:01.131Z,12.80
2022-12-11T06:15:33.257Z,12.90
2022-12-11T06:16:05.463Z,12.30
2022-12-11T06:16:37.534Z,12.50
2022-12-11T06:17:09.631Z,13.40
2022-12-11T06:17:41.785Z,13.30
2022-12-11T06:18:13.905Z,11.70
2022-12-11T06:18:46.047Z,11.30
2022-12-11T06:19:18.165Z,12.50
2022-12-11T06:19:50.299Z,11.80
2022-12-11T06:20:22.457Z,11.00
2022-12-11T06:20:54.594Z,11.30
2022-12-11T06:21:26.782Z,11.40
2022-12-11T06:21:58.907Z,11.50
2022-12-11T06:22:31.031Z,10.60
2022-12-11T06:23:03.186Z,9.50
2022-12-11T06:23:36.235Z,9.90
2022-12-11T06:24:08.368Z,11.60
2022-12-11T06:24:40.485Z,11.40
2022-12-11T06:25:12.924Z,10.80
2022-12-11T06:25:44.753Z,10.90
2022-12-11T06:26:16.930Z,10.30
2022-12-11T06:26:49.048Z,9.70
2022-12-11T06:27:21.182Z,9.90
2022-12-11T06:27:53.332Z,9.90
2022-12-11T06:28:25.440Z,10.30
2022-12-11T06:28:57.593Z,10.90
2022-12-11T06:29:29.752Z,11.50
2022-12-11T06:30:01.891Z,11.70
2022-12-11T06:30:37.529Z,11.40
2022-12-11T06:31:06.243Z,11.50
2022-12-11T06:31:38.466Z,11.00
2022-12-11T06:32:10.516Z,10.60
2022-12-11T06:32:42.628Z,10.50
2022-12-11T06:33:14.767Z,9.80
2022-12-11T06:33:47.006Z,8.40
2022-12-11T06:34:19.138Z,8.90
2022-12-11T06:34:51.372Z,11.30
2022-12-11T06:35:23.495Z,11.90
2022-12-11T06:35:55.619Z,10.80
2022-12-11T06:36:27.766Z,9.60
2022-12-11T06:36:59.879Z,8.80
2022-12-11T06:37:32.029Z,9.80
2022-12-11T06:38:04.217Z,9.60
2022-12-11T06:38:36.326Z,7.70
2022-12-11T06:39:08.538Z,7.40
2022-12-11T06:39:40.595Z,8.50
2022-12-11T06:40:12.744Z,8.50
2022-12-11T06:40:44.852Z,8.30
2022-12-11T06:41:16.985Z,7.80
2022-12-11T06:41:49.136Z,7.10
2022-12-11T06:42:21.283Z,7.10
2022-12-11T06:42:53.380Z,7.50
2022-12-11T06:43:25.523Z,8.30
2022-12-11T06:43:57.656Z,9.40
2022-12-11T06:44:29.788Z,9.50
2022-12-11T06:45:01.897Z,8.90
2022-12-11T06:45:34.072Z,8.90
2022-12-11T06:46:06.222Z,8.50
2022-12-11T06:46:38.303Z,7.30
2022-12-11T06:47:10.429Z,7.80
2022-12-11T06:47:42.539Z,9.00
2022-12-11T06:48:14.666Z,8.80
2022-12-11T06:48:46.804Z,7.90
2022-12-11T06:49:18.918Z,8.40
2022-12-11T06:49:51.037Z,9.30
2022-12-11T06:50:23.156Z,9.00
2022-12-11T06:50:55.262Z,9.60
2022-12-11T06:51:27.389Z,9.80
2022-12-11T06:51:59.488Z,9.80
2022-12-11T06:52:31.613Z,9.10
2022-12-11T06:53:03.795Z,8.30
2022-12-11T06:53:35.915Z,7.30
2022-12-11T06:54:08.064Z,7.40
2022-12-11T06:54:40.194Z,8.60
2022-12-11T06:55:12.552Z,9.10